Terminal Aerodrome Forecast
Issued by NWS Albany, NY

Home | Current Version | Previous Version | Text Only | Print | Product List | Glossary On
Versions: 1 2 3 4 5 6 7 8 9 10 11 12 13 14 15 16 17
000
FTUS41 KALY 310537
TAFPOU
TAF
KPOU 310537Z 3106/0106 VRB02KT P6SM SKC
      TEMPO 3106/3108 2SM BR
     FM311400 27008KT P6SM FEW060
     FM312200 VRB03KT P6SM SKC
     FM010500 00000KT P6SM BKN150=

USA.gov is the U.S. government's official web portal to all federal, state and local government web resources and services.